Arapahoe, North Carolina
Current Conditions -  °F | °C
As of 10:54 AM on Saturday 25 Oct 2014 (Local Time) from KNKT Reporting Station
Clear Clear  
Wind Chill: 18°   Ceiling: Unl
Heat Index: 18°   Visibility: 10mi
Dew Point:   Wind: 5mph
Humidity: 52%   Direction: 40°NE
Pressure: 30"   Gusts: NA
Location:  35.03°N, 76.83°W
Report Text: KNKT 251454Z 04004KT 10SM CLR 18/08 A3000 RMK AO2 SLP156 T01830083 58001 $
Loading
Personal Weather Stations






























Interactive Weather Map
Tropical Storm Tracking
New forecast layout! Learn more

10-Day Weather Forecast

Advertisements
Track Severe Weather on mobile